Time;durP1;ratioP1;P1;durP2;ratioP2;P2;SDS_P1;SDS_P2;PMS_P1;PMS_P2;Temp;Humidity;BMP_temperature;BMP_pressure;BME280_temperature;BME280_humidity;BME280_pressure;Samples;Min_cycle;Max_cycle;Signal;HPM_P1;HPM_P2
2021/11/30 00:00:56;;;;;;;10.05;5.38;;;;;;;-0.59;87.07;97957.69;4211841;27;20449;-71
2021/11/30 00:02:56;;;;;;;9.15;5.38;;;;;;;-0.60;87.10;97953.38;4210009;28;20063;-71
2021/11/30 00:04:57;;;;;;;17.05;5.60;;;;;;;-0.62;87.14;97947.47;4208899;27;20047;-71
2021/11/30 00:06:59;;;;;;;8.02;4.88;;;;;;;-0.62;87.30;97945.56;4207589;27;20479;-71
2021/11/30 00:09:10;;;;;;;8.95;5.00;;;;;;;-0.63;87.20;97949.41;4210601;27;20424;-71
2021/11/30 00:11:11;;;;;;;10.40;5.47;;;;;;;-0.62;86.95;97951.00;4207157;27;20040;-71
2021/11/30 00:13:17;;;;;;;9.80;5.32;;;;;;;-0.60;87.59;97943.31;4210118;27;20040;-71
2021/11/30 00:15:18;;;;;;;12.48;6.07;;;;;;;-0.59;86.54;97947.63;4209590;27;20170;-71
2021/11/30 00:17:19;;;;;;;9.45;5.00;;;;;;;-0.52;85.87;97955.31;4206951;27;20064;-71
2021/11/30 00:19:20;;;;;;;9.52;5.32;;;;;;;-0.57;85.92;97952.78;4207756;27;20135;-71
2021/11/30 00:21:20;;;;;;;10.05;5.15;;;;;;;-0.61;86.43;97954.50;4210531;27;20111;-71
2021/11/30 00:23:20;;;;;;;9.55;5.75;;;;;;;-0.61;85.77;97951.78;4207759;27;20028;-71
2021/11/30 00:25:21;;;;;;;9.93;5.50;;;;;;;-0.66;85.83;97952.75;4208718;27;20042;-71
2021/11/30 00:27:22;;;;;;;11.55;5.60;;;;;;;-0.70;87.31;97953.69;4208261;28;20099;-71
2021/11/30 00:29:22;;;;;;;10.10;5.50;;;;;;;-0.75;87.77;97962.78;4213717;27;20186;-71
2021/11/30 00:31:22;;;;;;;7.90;4.97;;;;;;;-0.74;87.36;97960.91;4211537;27;20043;-71
2021/11/30 00:33:23;;;;;;;10.15;5.30;;;;;;;-0.74;87.53;97961.69;4208649;27;20040;-71
2021/11/30 00:35:23;;;;;;;10.02;5.60;;;;;;;-0.75;87.30;97951.13;4209743;27;20035;-72
2021/11/30 00:37:24;;;;;;;7.68;5.07;;;;;;;-0.76;85.99;97950.31;4207724;27;20048;-71
2021/11/30 00:39:24;;;;;;;7.60;4.85;;;;;;;-0.77;85.61;97942.50;4207782;27;20040;-71
2021/11/30 00:41:25;;;;;;;8.25;4.70;;;;;;;-0.82;85.36;97934.50;4208079;27;20068;-71
2021/11/30 00:43:26;;;;;;;9.73;4.40;;;;;;;-0.76;86.45;97934.03;4209964;27;20543;-71
2021/11/30 00:45:36;;;;;;;7.28;4.18;;;;;;;-0.80;84.22;97924.91;4208272;27;20368;-71
2021/11/30 00:47:44;;;;;;;6.20;3.95;;;;;;;-0.86;84.25;97913.41;4207471;27;20189;-71
2021/11/30 00:49:47;;;;;;;7.40;4.00;;;;;;;-0.83;84.98;97911.16;4208351;27;20576;-71
2021/11/30 00:51:49;;;;;;;6.70;3.90;;;;;;;-0.82;83.60;97913.59;4206756;27;20319;-71
2021/11/30 00:53:51;;;;;;;8.25;4.57;;;;;;;-0.79;83.59;97915.66;4208684;27;20040;-71
2021/11/30 00:55:51;;;;;;;7.10;3.97;;;;;;;-0.74;83.36;97912.00;4207650;28;20489;-71
2021/11/30 00:57:52;;;;;;;7.72;4.60;;;;;;;-0.68;82.40;97921.56;4206834;27;20128;-71
2021/11/30 00:59:52;;;;;;;7.60;3.95;;;;;;;-0.65;81.84;97905.44;4209055;27;20071;-71
2021/11/30 01:01:53;;;;;;;8.05;4.00;;;;;;;-0.59;81.87;97906.06;4210595;27;20040;-72
2021/11/30 01:03:54;;;;;;;7.38;3.95;;;;;;;-0.59;81.63;97904.16;4206325;27;20047;-71
2021/11/30 01:05:54;;;;;;;7.53;4.28;;;;;;;-0.62;82.12;97910.25;4208027;27;20506;-71
2021/11/30 01:07:55;;;;;;;6.30;4.07;;;;;;;-0.57;81.39;97909.28;4209417;27;20040;-72
2021/11/30 01:09:55;;;;;;;9.23;4.50;;;;;;;-0.61;82.33;97917.25;4204759;28;20083;-71
2021/11/30 01:11:55;;;;;;;9.18;4.13;;;;;;;-0.54;81.85;97916.00;4209225;27;20036;-70
2021/11/30 01:13:56;;;;;;;7.85;4.30;;;;;;;-0.65;82.69;97918.25;4208091;27;20392;-70
2021/11/30 01:15:56;;;;;;;6.75;3.63;;;;;;;-0.54;82.91;97918.72;4205353;28;20098;-70
2021/11/30 01:17:57;;;;;;;8.25;4.18;;;;;;;-0.57;82.16;97915.53;4209692;27;20389;-70
2021/11/30 01:19:58;;;;;;;6.90;3.80;;;;;;;-0.62;82.57;97917.59;4208296;27;20601;-70
2021/11/30 01:21:58;;;;;;;8.52;4.70;;;;;;;-0.61;82.19;97916.47;4206638;28;20496;-70
2021/11/30 01:23:59;;;;;;;8.90;4.97;;;;;;;-0.61;82.53;97911.03;4209257;28;20048;-70
2021/11/30 01:26:00;;;;;;;7.00;4.25;;;;;;;-0.62;82.38;97912.16;4206681;28;20040;-70
2021/11/30 01:28:01;;;;;;;7.55;3.83;;;;;;;-0.55;82.53;97909.78;4208666;28;20050;-70
2021/11/30 01:30:04;;;;;;;8.45;4.55;;;;;;;-0.58;82.29;97905.78;4203032;28;20024;-71
2021/11/30 01:32:06;;;;;;;8.52;4.45;;;;;;;-0.55;82.36;97901.63;4206134;28;20451;-70
2021/11/30 01:34:06;;;;;;;8.52;4.50;;;;;;;-0.57;82.68;97901.16;4205922;28;20124;-70
2021/11/30 01:36:07;;;;;;;8.45;4.50;;;;;;;-0.54;82.06;97899.69;4207458;28;20341;-70
2021/11/30 01:38:07;;;;;;;8.57;4.50;;;;;;;-0.50;81.67;97889.78;4205911;28;20063;-71
2021/11/30 01:40:11;;;;;;;7.75;4.43;;;;;;;-0.49;81.82;97884.03;4205083;28;20429;-71
2021/11/30 01:42:14;;;;;;;7.70;4.72;;;;;;;-0.54;82.64;97886.91;4206033;28;20320;-71
2021/11/30 01:47:05;;;;;;;7.32;4.07;;;;;;;-0.51;82.68;97883.53;4205260;28;20601;-71
2021/11/30 01:49:23;;;;;;;6.90;3.72;;;;;;;-0.51;82.28;97878.09;4210049;28;20282;-71
2021/11/30 01:51:25;;;;;;;7.28;4.20;;;;;;;-0.47;82.95;97881.78;4210436;27;20043;-71
2021/11/30 01:53:25;;;;;;;8.30;4.72;;;;;;;-0.42;82.95;97872.66;4206777;28;20054;-71
2021/11/30 01:55:27;;;;;;;9.00;5.25;;;;;;;-0.34;82.81;97861.78;4203834;28;20496;-71
2021/11/30 01:57:28;;;;;;;8.75;5.07;;;;;;;-0.31;82.82;97866.59;4206871;28;20054;-71
2021/11/30 01:59:28;;;;;;;7.47;4.18;;;;;;;-0.30;83.18;97856.53;4206382;28;20570;-70
2021/11/30 02:01:29;;;;;;;8.68;4.57;;;;;;;-0.25;83.04;97856.34;4204147;28;20044;-71
2021/11/30 02:03:29;;;;;;;7.68;4.93;;;;;;;-0.27;83.30;97850.44;4207153;28;20032;-71
2021/11/30 02:05:29;;;;;;;9.25;5.57;;;;;;;-0.25;83.85;97844.66;4205901;28;20036;-71
2021/11/30 02:07:30;;;;;;;11.07;6.50;;;;;;;-0.20;83.61;97850.75;4210966;28;20048;-71
2021/11/30 02:09:30;;;;;;;9.30;5.45;;;;;;;-0.07;83.94;97840.81;4206911;28;20051;-71
2021/11/30 02:11:31;;;;;;;9.52;5.00;;;;;;;-0.07;84.35;97838.88;4209373;28;20035;-71
2021/11/30 02:13:32;;;;;;;11.63;6.72;;;;;;;-0.02;84.76;97846.84;4205034;28;20036;-71
2021/11/30 02:15:40;;;;;;;9.43;5.28;;;;;;;-0.03;85.15;97839.03;4205661;28;20657;-71
2021/11/30 02:17:40;;;;;;;9.30;5.63;;;;;;;-0.02;85.96;97844.13;4206648;28;20118;-71
2021/11/30 02:19:52;;;;;;;11.77;6.72;;;;;;;0.05;85.90;97848.28;4204908;28;20047;-71
2021/11/30 02:21:53;;;;;;;10.07;5.45;;;;;;;0.12;86.07;97846.66;4213577;27;20039;-71
2021/11/30 02:24:00;;;;;;;10.68;5.80;;;;;;;0.06;86.66;97828.91;4208576;27;20511;-70
2021/11/30 02:26:07;;;;;;;8.48;5.07;;;;;;;0.15;86.67;97831.59;4210830;27;20899;-70
2021/11/30 02:28:07;;;;;;;11.05;5.82;;;;;;;0.19;86.87;97832.56;4209477;27;20044;-70
2021/11/30 02:30:08;;;;;;;8.73;5.43;;;;;;;0.26;86.24;97822.78;4208270;27;20655;-71
2021/11/30 02:32:09;;;;;;;9.98;5.18;;;;;;;0.32;86.55;97820.66;4207791;27;20028;-71
2021/11/30 02:34:09;;;;;;;7.47;4.32;;;;;;;0.44;86.42;97823.50;4215190;27;20020;-71
2021/11/30 02:36:28;;;;;;;8.70;5.28;;;;;;;0.43;86.65;97827.34;4206559;27;20059;-71
2021/11/30 02:38:28;;;;;;;9.75;4.80;;;;;;;0.41;87.03;97820.63;4212111;28;20035;-71
2021/11/30 02:40:29;;;;;;;9.07;4.90;;;;;;;0.38;87.32;97821.28;4211710;27;20028;-71
2021/11/30 02:42:29;;;;;;;9.57;4.70;;;;;;;0.36;87.95;97827.06;4208616;27;20059;-71
2021/11/30 02:44:30;;;;;;;7.40;4.15;;;;;;;0.36;88.38;97818.88;4207730;27;20542;-71
2021/11/30 02:46:37;;;;;;;6.85;4.28;;;;;;;0.36;89.00;97823.53;4209980;27;20397;-71
2021/11/30 02:48:37;;;;;;;7.50;4.15;;;;;;;0.40;88.96;97819.81;4208351;27;20048;-71
2021/11/30 02:50:42;;;;;;;7.07;4.20;;;;;;;0.39;88.92;97806.53;4212567;27;20383;-71
2021/11/30 02:52:43;;;;;;;6.28;4.10;;;;;;;0.43;88.92;97805.56;4207633;27;20043;-71
2021/11/30 02:54:46;;;;;;;7.20;4.57;;;;;;;0.38;89.40;97804.94;4209420;27;20040;-71
2021/11/30 02:56:50;;;;;;;6.68;3.83;;;;;;;0.38;89.18;97808.47;4208159;27;20143;-71
2021/11/30 02:58:50;;;;;;;6.78;3.95;;;;;;;0.39;89.53;97810.06;4207262;27;20357;-71
2021/11/30 03:00:50;;;;;;;6.97;3.67;;;;;;;0.40;89.61;97799.97;4209071;27;20054;-71
2021/11/30 03:02:51;;;;;;;5.47;3.67;;;;;;;0.36;90.81;97794.41;4208261;27;20036;-71
2021/11/30 03:04:54;;;;;;;5.72;4.03;;;;;;;0.37;90.72;97778.88;4210740;27;20409;-71
2021/11/30 03:06:57;;;;;;;6.30;3.97;;;;;;;0.36;90.90;97771.84;4211975;27;20044;-71
2021/11/30 03:08:57;;;;;;;6.82;3.95;;;;;;;0.40;91.22;97776.28;4207683;27;20067;-71
2021/11/30 03:10:57;;;;;;;5.88;4.25;;;;;;;0.40;91.64;97768.09;4207323;27;20318;-71
2021/11/30 03:12:58;;;;;;;6.43;3.92;;;;;;;0.40;91.76;97778.19;4205581;27;20521;-71
2021/11/30 03:14:58;;;;;;;6.53;4.18;;;;;;;0.37;92.89;97778.88;4208669;27;20044;-71
2021/11/30 03:16:59;;;;;;;7.80;4.18;;;;;;;0.30;93.45;97778.56;4206999;27;20500;-71
2021/11/30 03:19:01;;;;;;;7.47;4.22;;;;;;;0.28;94.56;97771.53;4208735;27;20048;-71
2021/11/30 03:21:04;;;;;;;7.85;4.15;;;;;;;0.25;94.81;97771.41;4207192;27;20120;-71
2021/11/30 03:23:04;;;;;;;7.07;4.55;;;;;;;0.29;95.15;97766.91;4209381;27;20078;-71
2021/11/30 03:25:07;;;;;;;6.88;4.10;;;;;;;0.26;95.21;97756.69;4206063;27;20044;-71
2021/11/30 03:27:07;;;;;;;5.47;3.83;;;;;;;0.28;94.93;97759.88;4208440;27;20055;-71
2021/11/30 03:29:08;;;;;;;5.97;3.90;;;;;;;0.27;95.27;97753.63;4208902;27;20450;-71
2021/11/30 03:31:31;;;;;;;6.25;3.95;;;;;;;0.34;94.44;97747.69;4212298;27;20052;-71
2021/11/30 03:35:51;;;;;;;5.82;4.03;;;;;;;0.34;94.03;97736.78;4208143;27;19939;-71
2021/11/30 03:37:52;;;;;;;5.72;4.13;;;;;;;0.37;94.49;97738.84;4207891;27;20040;-71
2021/11/30 03:39:52;;;;;;;11.00;4.95;;;;;;;0.41;94.15;97731.59;4206762;27;20054;-71
2021/11/30 03:41:56;;;;;;;6.95;4.40;;;;;;;0.40;93.07;97740.09;4207650;27;20384;-71
2021/11/30 03:43:56;;;;;;;8.00;4.75;;;;;;;0.45;93.28;97735.28;4208416;27;20154;-71
2021/11/30 03:45:57;;;;;;;8.40;5.47;;;;;;;0.50;93.56;97737.03;4207536;27;20383;-71
2021/11/30 03:47:57;;;;;;;7.10;4.82;;;;;;;0.48;94.02;97740.03;4207201;27;20479;-71
2021/11/30 03:49:58;;;;;;;8.75;5.88;;;;;;;0.50;94.23;97735.09;4206687;27;20044;-71
2021/11/30 03:51:58;;;;;;;10.00;5.70;;;;;;;0.68;92.76;97735.78;4207226;27;20055;-71
2021/11/30 03:53:58;;;;;;;8.02;5.10;;;;;;;0.69;93.22;97723.75;4206621;27;20497;-71
2021/11/30 03:55:59;;;;;;;7.95;5.18;;;;;;;0.68;93.18;97715.91;4206991;27;20055;-71
2021/11/30 03:57:59;;;;;;;9.43;5.63;;;;;;;0.75;93.51;97713.47;4207562;27;20286;-71
2021/11/30 04:00:04;;;;;;;9.73;5.82;;;;;;;0.73;92.89;97705.59;4206792;27;20040;-71
2021/11/30 04:02:05;;;;;;;8.57;5.20;;;;;;;0.83;92.65;97704.44;4210635;27;20116;-71
2021/11/30 04:04:11;;;;;;;7.20;5.05;;;;;;;0.85;92.86;97696.72;4212575;27;20027;-71
2021/11/30 04:06:12;;;;;;;6.82;4.88;;;;;;;0.88;92.54;97689.78;4211207;27;20546;-71
2021/11/30 04:08:12;;;;;;;9.27;4.95;;;;;;;0.84;92.72;97684.22;4208736;27;20039;-71
2021/11/30 04:10:13;;;;;;;8.43;5.00;;;;;;;0.80;93.39;97678.63;4211037;27;20039;-71
2021/11/30 04:12:14;;;;;;;6.88;5.00;;;;;;;0.83;93.71;97678.00;4211135;27;20430;-71
2021/11/30 04:14:15;;;;;;;7.00;4.90;;;;;;;0.80;93.26;97675.13;4208059;27;20426;-72
2021/11/30 04:16:16;;;;;;;9.43;4.53;;;;;;;0.78;94.35;97674.66;4208801;27;20051;-71
2021/11/30 04:18:16;;;;;;;7.55;4.38;;;;;;;0.79;94.11;97671.59;4210367;28;20475;-71
2021/11/30 04:20:17;;;;;;;7.15;4.93;;;;;;;0.81;93.91;97663.09;4207448;27;20032;-71
2021/11/30 04:22:17;;;;;;;7.32;4.97;;;;;;;0.76;94.43;97664.13;4208706;27;20356;-71
2021/11/30 04:24:18;;;;;;;7.32;4.45;;;;;;;0.73;94.01;97650.34;4206986;27;20117;-71
2021/11/30 04:26:18;;;;;;;6.35;4.07;;;;;;;0.79;93.74;97649.03;4210585;27;20118;-71
2021/11/30 04:28:19;;;;;;;5.35;4.15;;;;;;;0.87;92.97;97636.47;4207897;27;20027;-71
2021/11/30 04:30:19;;;;;;;8.18;4.80;;;;;;;0.88;92.90;97636.13;4210056;27;20028;-71
2021/11/30 04:32:19;;;;;;;6.03;4.45;;;;;;;0.87;92.99;97644.63;4209130;27;20352;-71
2021/11/30 04:34:20;;;;;;;6.15;3.70;;;;;;;0.96;91.64;97637.97;4212947;27;20043;-71
2021/11/30 04:36:20;;;;;;;7.63;3.88;;;;;;;0.98;91.09;97630.25;4210937;27;20048;-71
2021/11/30 04:38:21;;;;;;;5.18;3.75;;;;;;;0.96;91.22;97621.63;4207427;27;20040;-71
2021/11/30 04:40:21;;;;;;;5.20;3.80;;;;;;;0.93;91.07;97622.31;4209698;27;20491;-71
2021/11/30 04:42:26;;;;;;;4.82;3.50;;;;;;;0.89;91.07;97621.38;4208005;27;20039;-71
2021/11/30 04:44:28;;;;;;;3.70;3.10;;;;;;;0.87;91.85;97622.84;4211496;27;20464;-71
2021/11/30 04:46:39;;;;;;;5.80;3.35;;;;;;;0.90;90.87;97622.97;4209518;27;20051;-71
2021/11/30 04:48:43;;;;;;;4.90;3.40;;;;;;;0.92;90.20;97618.00;4210766;27;20043;-71
2021/11/30 04:50:47;;;;;;;7.18;3.67;;;;;;;0.88;90.96;97611.63;4205370;28;20036;-71
2021/11/30 04:52:49;;;;;;;6.75;3.20;;;;;;;0.87;91.54;97610.03;4207712;27;20079;-71
2021/11/30 04:54:50;;;;;;;5.15;2.92;;;;;;;0.95;89.99;97617.31;4210801;27;20032;-71
2021/11/30 04:56:51;;;;;;;4.53;2.80;;;;;;;0.94;89.17;97609.47;4206820;27;20109;-71
2021/11/30 04:58:52;;;;;;;4.65;2.92;;;;;;;0.89;89.63;97605.03;4206416;28;20044;-71
2021/11/30 05:00:52;;;;;;;3.63;3.10;;;;;;;0.85;89.83;97606.84;4210260;27;20685;-71
2021/11/30 05:02:53;;;;;;;3.75;2.60;;;;;;;0.86;89.84;97600.25;4207679;27;20072;-71
2021/11/30 05:04:53;;;;;;;4.47;2.72;;;;;;;0.87;89.48;97590.97;4206918;27;20093;-71
2021/11/30 05:06:54;;;;;;;5.22;2.63;;;;;;;0.82;89.63;97583.00;4211120;27;20036;-71
2021/11/30 05:08:54;;;;;;;3.97;2.30;;;;;;;0.80;90.01;97579.81;4209909;27;20036;-71
2021/11/30 05:10:55;;;;;;;3.78;2.38;;;;;;;0.76;90.36;97563.38;4209030;28;20124;-71
2021/11/30 05:12:56;;;;;;;3.60;2.13;;;;;;;0.72;90.56;97573.31;4212616;27;20134;-71
2021/11/30 05:14:56;;;;;;;4.50;2.95;;;;;;;0.70;90.88;97559.25;4209931;28;20047;-71
2021/11/30 05:16:56;;;;;;;2.50;2.08;;;;;;;0.70;90.06;97564.69;4211040;28;20096;-71
2021/11/30 05:18:57;;;;;;;3.97;2.10;;;;;;;0.78;88.84;97563.81;4216858;28;20428;-71
2021/11/30 05:20:59;;;;;;;4.68;2.53;;;;;;;0.72;89.40;97548.81;4209422;27;20036;-71
2021/11/30 05:23:00;;;;;;;2.55;1.90;;;;;;;0.73;89.73;97552.34;4210646;28;20039;-71
2021/11/30 05:25:00;;;;;;;3.92;1.70;;;;;;;0.61;90.24;97544.16;4210104;27;20050;-71
2021/11/30 05:27:03;;;;;;;2.00;1.80;;;;;;;0.64;89.25;97535.28;4212309;28;20032;-71
2021/11/30 05:29:05;;;;;;;2.40;1.77;;;;;;;0.58;89.86;97532.00;4211843;28;20039;-71
2021/11/30 05:31:07;;;;;;;2.97;1.80;;;;;;;0.56;89.73;97529.59;4214180;28;20047;-71
2021/11/30 05:33:09;;;;;;;2.28;1.70;;;;;;;0.53;89.06;97527.56;4206759;28;20512;-71
2021/11/30 05:35:10;;;;;;;2.05;1.50;;;;;;;0.54;88.28;97526.44;4205799;27;20047;-71
2021/11/30 05:37:12;;;;;;;2.60;1.65;;;;;;;0.55;88.64;97530.72;4210438;28;20040;-71
2021/11/30 05:39:13;;;;;;;1.80;1.45;;;;;;;0.55;89.33;97517.13;4211627;27;20052;-71
2021/11/30 05:41:14;;;;;;;4.80;1.48;;;;;;;0.49;89.55;97521.19;4209403;28;20088;-71
2021/11/30 05:43:15;;;;;;;4.65;1.65;;;;;;;0.54;90.70;97517.47;4212740;28;20523;-71
2021/11/30 05:45:15;;;;;;;2.78;1.92;;;;;;;0.49;91.08;97518.47;4209989;28;20054;-71
2021/11/30 05:47:16;;;;;;;3.58;1.63;;;;;;;0.47;91.60;97519.94;4209128;28;20426;-71
2021/11/30 05:49:17;;;;;;;2.95;1.70;;;;;;;0.45;92.46;97489.53;4209064;27;20054;-71
2021/11/30 05:51:18;;;;;;;4.25;1.85;;;;;;;0.40;93.19;97489.75;4208273;28;20119;-71
2021/11/30 05:53:18;;;;;;;2.03;1.80;;;;;;;0.37;93.54;97491.22;4210029;28;20060;-71
2021/11/30 05:55:18;;;;;;;1.73;1.50;;;;;;;0.32;94.09;97480.53;4208039;27;20382;-71
2021/11/30 05:57:21;;;;;;;2.22;1.80;;;;;;;0.31;93.91;97470.78;4208482;27;20040;-71
2021/11/30 05:59:22;;;;;;;1.80;1.50;;;;;;;0.37;92.84;97468.66;4207501;27;20032;-71
2021/11/30 06:01:32;;;;;;;2.10;1.70;;;;;;;0.32;93.17;97437.00;4208735;27;20177;-71
2021/11/30 06:03:45;;;;;;;1.40;1.25;;;;;;;0.30;93.70;97441.97;4208125;27;20097;-71
2021/11/30 06:05:46;;;;;;;2.25;1.30;;;;;;;0.27;93.77;97442.66;4210347;27;20044;-71
2021/11/30 06:07:47;;;;;;;1.75;1.30;;;;;;;0.27;93.46;97426.34;4207771;27;20507;-71
2021/11/30 06:09:47;;;;;;;1.48;1.38;;;;;;;0.32;93.23;97453.31;4208350;27;20044;-71
2021/11/30 06:11:47;;;;;;;1.42;1.13;;;;;;;0.31;93.40;97450.94;4209549;27;20039;-71
2021/11/30 06:13:48;;;;;;;1.83;1.40;;;;;;;0.23;94.20;97431.66;4207311;27;20492;-72
2021/11/30 06:15:48;;;;;;;1.55;1.20;;;;;;;0.19;94.76;97438.91;4208846;27;20043;-72
2021/11/30 06:17:49;;;;;;;1.70;1.30;;;;;;;0.23;94.87;97422.69;4212770;27;20043;-71
2021/11/30 06:19:49;;;;;;;1.55;1.20;;;;;;;0.24;93.98;97424.28;4222186;27;20200;-71
2021/11/30 06:21:50;;;;;;;1.40;1.20;;;;;;;0.24;94.38;97400.59;4212753;27;20055;-71
2021/11/30 06:23:50;;;;;;;2.30;1.10;;;;;;;0.23;94.13;97400.94;4210668;27;20042;-71
2021/11/30 06:25:51;;;;;;;1.52;1.00;;;;;;;0.23;93.98;97406.38;4209420;27;20047;-71
2021/11/30 06:27:51;;;;;;;1.23;1.13;;;;;;;0.22;94.03;97416.47;4209829;27;20242;-71
2021/11/30 06:29:52;;;;;;;1.25;1.08;;;;;;;0.25;94.24;97423.97;4210622;27;20041;-71
2021/11/30 06:31:52;;;;;;;1.02;0.93;;;;;;;0.26;94.24;97416.59;4208132;27;20401;-71
2021/11/30 06:33:52;;;;;;;1.77;1.20;;;;;;;0.26;94.04;97408.44;4209280;27;20040;-71
2021/11/30 06:35:53;;;;;;;3.30;1.23;;;;;;;0.20;95.32;97393.44;4206697;27;20380;-71
2021/11/30 06:37:53;;;;;;;1.52;1.10;;;;;;;0.22;94.15;97391.19;4209744;27;20043;-71
2021/11/30 06:39:55;;;;;;;1.13;1.00;;;;;;;0.18;94.67;97347.56;4208193;27;20045;-71
2021/11/30 06:41:55;;;;;;;1.50;1.23;;;;;;;0.20;95.42;97383.38;4206597;27;20059;-71
2021/11/30 06:43:55;;;;;;;1.83;1.20;;;;;;;0.39;93.34;97392.91;4210604;27;20040;-71
2021/11/30 06:45:56;;;;;;;1.27;1.17;;;;;;;0.38;93.25;97366.84;4208385;27;20487;-71
2021/11/30 06:47:56;;;;;;;1.25;0.90;;;;;;;0.36;93.69;97386.22;4208523;27;20048;-71
2021/11/30 06:49:57;;;;;;;1.10;1.00;;;;;;;0.43;91.94;97372.06;4205255;27;20052;-71
2021/11/30 06:51:57;;;;;;;1.10;1.00;;;;;;;0.44;92.70;97385.34;4209164;27;20044;-71
2021/11/30 06:53:58;;;;;;;1.25;1.15;;;;;;;0.43;92.20;97364.69;4208857;27;20497;-71
2021/11/30 06:55:58;;;;;;;2.35;1.50;;;;;;;0.47;92.21;97376.47;4208333;27;20054;-71
2021/11/30 06:58:00;;;;;;;2.65;1.65;;;;;;;0.44;92.82;97377.16;4210776;27;20058;-71
2021/11/30 07:00:04;;;;;;;1.95;1.40;;;;;;;0.40;92.69;97375.44;4208590;27;20554;-71
2021/11/30 07:02:05;;;;;;;1.80;1.40;;;;;;;0.41;92.61;97369.66;4207268;27;20480;-71
2021/11/30 07:04:05;;;;;;;1.55;1.05;;;;;;;0.46;92.75;97372.19;4208905;28;20113;-71
2021/11/30 07:10:46;;;;;;;0.95;0.90;;;;;;;0.48;93.52;97320.91;4212202;27;20071;-71
2021/11/30 07:12:50;;;;;;;1.13;0.93;;;;;;;0.52;92.62;97368.09;4207971;27;20133;-71
2021/11/30 07:14:51;;;;;;;1.10;1.00;;;;;;;0.54;92.78;97359.59;4209037;27;20368;-71
2021/11/30 07:16:51;;;;;;;1.40;1.20;;;;;;;0.57;92.65;97343.38;4213443;27;20515;-71
2021/11/30 07:18:52;;;;;;;1.25;1.02;;;;;;;0.60;93.11;97349.28;4210512;27;20050;-71
2021/11/30 07:20:53;;;;;;;1.50;1.20;;;;;;;0.66;92.74;97345.97;4208648;27;20431;-71
2021/11/30 07:22:56;;;;;;;1.90;1.17;;;;;;;0.61;92.86;97359.84;4208944;27;20044;-71
2021/11/30 07:24:57;;;;;;;1.20;1.10;;;;;;;0.59;93.03;97329.44;4206441;27;20044;-71
2021/11/30 07:26:58;;;;;;;1.00;0.90;;;;;;;0.59;93.47;97332.16;4207504;27;20041;-71
2021/11/30 07:28:59;;;;;;;2.15;1.20;;;;;;;0.60;93.36;97319.34;4207634;27;20383;-71
2021/11/30 07:31:05;;;;;;;1.77;1.33;;;;;;;0.70;92.36;97310.72;4208594;27;20048;-71
2021/11/30 07:33:05;;;;;;;1.08;0.88;;;;;;;0.65;93.37;97305.50;4211062;27;20124;-71
2021/11/30 07:35:07;;;;;;;0.80;0.80;;;;;;;0.79;92.61;97330.44;4213871;27;20096;-71
2021/11/30 07:37:07;;;;;;;0.80;0.80;;;;;;;0.79;92.51;97328.50;4208052;27;20374;-71
2021/11/30 07:39:08;;;;;;;1.85;0.85;;;;;;;0.80;92.87;97321.94;4205310;27;20040;-71
2021/11/30 07:41:10;;;;;;;0.85;0.85;;;;;;;0.82;92.65;97318.84;4209030;27;20127;-71
2021/11/30 07:43:10;;;;;;;0.90;0.90;;;;;;;0.81;93.29;97312.63;4208364;27;20043;-70
2021/11/30 07:45:13;;;;;;;1.10;1.00;;;;;;;0.81;93.56;97323.50;4206751;27;20467;-71
2021/11/30 07:47:13;;;;;;;0.70;0.70;;;;;;;0.84;92.13;97314.69;4209750;27;20535;-71
2021/11/30 07:49:14;;;;;;;0.80;0.70;;;;;;;0.86;92.60;97325.22;4207601;27;20071;-71
2021/11/30 07:51:17;;;;;;;0.80;0.80;;;;;;;0.86;93.33;97294.47;4207131;27;20146;-71
2021/11/30 07:53:18;;;;;;;1.00;0.93;;;;;;;0.79;93.43;97312.19;4207541;27;20043;-71
2021/11/30 07:55:19;;;;;;;0.85;0.82;;;;;;;0.80;93.54;97305.59;4210528;27;20040;-71
2021/11/30 07:57:21;;;;;;;1.20;1.10;;;;;;;0.86;93.57;97286.31;4207154;27;20512;-71
2021/11/30 07:59:22;;;;;;;0.80;0.80;;;;;;;0.93;92.16;97283.81;4209871;27;20476;-71
2021/11/30 08:01:22;;;;;;;0.80;0.80;;;;;;;0.90;93.04;97293.44;4208017;27;20047;-71
2021/11/30 08:03:23;;;;;;;0.80;0.80;;;;;;;0.92;92.90;97274.84;4207706;27;20044;-71
2021/11/30 08:05:23;;;;;;;3.88;0.90;;;;;;;0.91;93.44;97281.44;4206848;27;20075;-71
2021/11/30 08:07:24;;;;;;;1.60;1.15;;;;;;;0.93;93.01;97275.63;4206894;27;20388;-71
2021/11/30 08:09:26;;;;;;;1.25;1.10;;;;;;;0.89;93.60;97285.59;4208176;27;20116;-71
2021/11/30 08:11:27;;;;;;;1.50;1.33;;;;;;;0.88;93.64;97268.47;4207673;27;20476;-71
2021/11/30 08:13:27;;;;;;;1.52;1.42;;;;;;;0.91;93.95;97269.72;4207607;27;20200;-71
2021/11/30 08:15:28;;;;;;;2.17;1.05;;;;;;;0.93;93.27;97292.75;4206034;27;20151;-71
2021/11/30 08:17:28;;;;;;;0.98;0.90;;;;;;;1.03;92.16;97273.22;4206888;27;20480;-71
2021/11/30 08:19:29;;;;;;;1.30;1.10;;;;;;;1.07;92.15;97282.25;4207397;27;20074;-71
2021/11/30 08:21:30;;;;;;;1.00;0.90;;;;;;;1.06;92.42;97280.69;4209788;27;20480;-71
2021/11/30 08:23:30;;;;;;;0.95;0.88;;;;;;;1.10;92.04;97283.53;4208006;27;20040;-71
2021/11/30 08:25:31;;;;;;;1.85;1.38;;;;;;;1.18;91.88;97295.44;4205997;27;20109;-71
2021/11/30 08:27:32;;;;;;;3.20;1.73;;;;;;;1.26;91.59;97284.38;4206955;27;20067;-71
2021/11/30 08:29:37;;;;;;;3.13;1.60;;;;;;;1.25;91.37;97285.53;4202791;28;20044;-71
2021/11/30 08:31:38;;;;;;;1.70;1.20;;;;;;;1.27;91.62;97291.41;4213596;27;20040;-71
2021/11/30 08:33:38;;;;;;;1.05;1.00;;;;;;;1.24;91.59;97291.31;4208694;27;20126;-71
2021/11/30 08:35:39;;;;;;;1.00;0.90;;;;;;;1.28;91.58;97278.59;4206039;27;20441;-71
2021/11/30 08:37:39;;;;;;;0.60;0.60;;;;;;;1.30;91.35;97271.63;4208407;27;20048;-71
2021/11/30 08:39:40;;;;;;;0.80;0.80;;;;;;;1.32;91.91;97274.00;4204551;27;20048;-71
2021/11/30 08:41:41;;;;;;;0.60;0.60;;;;;;;1.31;92.18;97280.59;4208179;27;20071;-70
2021/11/30 08:43:41;;;;;;;0.85;0.70;;;;;;;1.32;92.71;97274.81;4207079;27;20504;-70
2021/11/30 08:45:42;;;;;;;0.80;0.80;;;;;;;1.32;92.69;97274.00;4205596;27;20488;-71
2021/11/30 08:47:42;;;;;;;0.80;0.80;;;;;;;1.29;93.49;97277.44;4206679;27;20044;-71
2021/11/30 08:49:43;;;;;;;0.80;0.80;;;;;;;1.26;93.93;97264.53;4206899;27;20117;-71
2021/11/30 08:51:44;;;;;;;0.93;0.82;;;;;;;1.21;94.06;97251.91;4208928;27;20043;-71
2021/11/30 08:53:44;;;;;;;0.90;0.90;;;;;;;1.26;94.04;97265.31;4204604;28;20040;-71
2021/11/30 08:55:46;;;;;;;0.60;0.60;;;;;;;1.28;94.02;97262.22;4205384;27;20095;-71
2021/11/30 08:57:46;;;;;;;0.73;0.73;;;;;;;1.24;94.52;97264.88;4207031;27;20036;-71
2021/11/30 08:59:47;;;;;;;1.30;1.20;;;;;;;1.27;94.45;97253.28;4204294;27;20604;-71
2021/11/30 09:01:48;;;;;;;1.00;0.90;;;;;;;1.26;94.48;97251.69;4205913;27;20479;-71
2021/11/30 09:03:48;;;;;;;2.13;1.20;;;;;;;1.32;94.07;97244.03;4206058;27;20048;-71
2021/11/30 09:05:49;;;;;;;2.88;1.20;;;;;;;1.31;94.32;97247.91;4207103;27;20378;-71
2021/11/30 09:07:50;;;;;;;1.40;1.20;;;;;;;1.27;95.23;97238.84;4204463;27;20138;-71
2021/11/30 09:09:51;;;;;;;1.13;1.00;;;;;;;1.32;95.37;97253.00;4207327;27;20048;-71
2021/11/30 09:11:52;;;;;;;0.80;0.80;;;;;;;1.37;94.52;97246.53;4212842;28;20036;-71
2021/11/30 09:13:53;;;;;;;0.80;0.80;;;;;;;1.36;93.96;97251.19;4203633;27;20576;-71
2021/11/30 09:15:53;;;;;;;1.77;1.20;;;;;;;1.36;94.09;97259.34;4207768;27;20087;-71
2021/11/30 09:17:57;;;;;;;1.48;1.20;;;;;;;1.42;94.04;97264.56;4206278;28;20682;-71
2021/11/30 09:19:58;;;;;;;1.45;0.90;;;;;;;1.48;93.81;97250.31;4202938;28;20550;-71
2021/11/30 09:21:59;;;;;;;0.95;0.90;;;;;;;1.46;94.41;97251.81;4209526;28;20071;-71
2021/11/30 09:24:00;;;;;;;1.95;0.90;;;;;;;1.48;94.70;97246.81;4207366;28;20722;-71
2021/11/30 09:26:01;;;;;;;3.08;1.08;;;;;;;1.44;95.06;97246.72;4205313;28;20036;-71
2021/11/30 09:28:03;;;;;;;1.23;0.80;;;;;;;1.47;94.93;97262.38;4207268;27;20046;-71
2021/11/30 09:30:07;;;;;;;0.88;0.77;;;;;;;1.43;95.28;97241.63;4203993;27;20447;-71
2021/11/30 09:32:10;;;;;;;0.70;0.70;;;;;;;1.42;95.47;97243.56;4206319;28;20036;-71
2021/11/30 09:34:11;;;;;;;1.08;0.70;;;;;;;1.46;95.82;97251.81;4218729;28;20055;-71
2021/11/30 09:36:12;;;;;;;0.80;0.80;;;;;;;1.45;95.31;97251.03;4207564;28;20468;-71
2021/11/30 09:38:13;;;;;;;1.70;1.03;;;;;;;1.36;95.90;97253.13;4206062;28;20799;-71
2021/11/30 09:40:16;;;;;;;2.15;0.80;;;;;;;1.41;96.59;97233.81;4204581;28;20165;-71
2021/11/30 09:42:18;;;;;;;1.27;1.17;;;;;;;1.40;96.82;97224.81;4207129;28;20475;-71
2021/11/30 09:44:18;;;;;;;0.70;0.70;;;;;;;1.37;97.58;97222.78;4205428;28;20452;-71
2021/11/30 09:46:19;;;;;;;0.77;0.60;;;;;;;1.48;96.77;97233.97;4206233;28;20024;-71